Time;durP1;ratioP1;P1;durP2;ratioP2;P2;SDS_P1;SDS_P2;PMS_P1;PMS_P2;Temp;Humidity;BMP_temperature;BMP_pressure;BME280_temperature;BME280_humidity;BME280_pressure;Samples;Min_cycle;Max_cycle;Signal;HPM_P1;HPM_P2
2024/03/31 00:00:16;;;;;;;31.07;17.20;;;8.60;99.90;;;;;;5072368;28;20035;-51
2024/03/31 00:02:46;;;;;;;27.17;16.07;;;8.60;99.90;;;;;;5054317;28;20111;-49
2024/03/31 00:05:12;;;;;;;30.87;16.83;;;8.60;99.90;;;;;;5072217;28;20083;-48
2024/03/31 00:07:38;;;;;;;27.07;16.00;;;8.60;99.90;;;;;;5072356;28;20439;-49
2024/03/31 00:10:04;;;;;;;29.87;16.37;;;8.50;99.90;;;;;;5072339;28;20024;-50
2024/03/31 00:12:30;;;;;;;26.87;15.23;;;8.50;99.90;;;;;;5072701;28;20028;-50
2024/03/31 00:14:55;;;;;;;28.03;15.67;;;8.50;99.90;;;;;;5072062;28;20033;-48
2024/03/31 00:17:21;;;;;;;31.20;16.37;;;8.40;99.90;;;;;;5072131;28;20074;-48
2024/03/31 00:19:48;;;;;;;27.73;15.67;;;8.40;99.90;;;;;;5072065;28;20035;-49
2024/03/31 00:22:14;;;;;;;28.40;16.23;;;8.40;99.90;;;;;;5072058;28;20025;-50
2024/03/31 00:24:41;;;;;;;26.93;15.70;;;8.40;99.90;;;;;;5072138;28;20039;-49
2024/03/31 00:27:08;;;;;;;31.83;17.97;;;8.40;99.90;;;;;;5071888;28;20025;-49
2024/03/31 00:29:33;;;;;;;28.40;16.27;;;8.40;99.90;;;;;;5072113;28;20496;-48
2024/03/31 00:31:59;;;;;;;32.60;17.63;;;8.40;99.90;;;;;;5054001;28;20056;-54
2024/03/31 00:34:25;;;;;;;32.03;17.33;;;8.40;99.90;;;;;;5071984;28;20031;-52
2024/03/31 00:36:51;;;;;;;30.37;17.20;;;8.40;99.90;;;;;;5053930;28;20473;-52
2024/03/31 00:39:16;;;;;;;30.67;16.97;;;8.30;99.90;;;;;;5053063;28;20085;-53
2024/03/31 00:41:43;;;;;;;34.37;17.87;;;8.30;99.90;;;;;;5054063;28;20068;-52
2024/03/31 00:44:09;;;;;;;31.77;17.83;;;8.30;99.90;;;;;;5053856;28;20036;-53
2024/03/31 00:46:35;;;;;;;35.07;18.70;;;8.30;99.90;;;;;;5053655;28;20036;-52
2024/03/31 00:49:00;;;;;;;35.10;18.57;;;8.30;99.90;;;;;;5071833;28;20047;-51
2024/03/31 00:51:26;;;;;;;31.70;18.13;;;8.30;99.90;;;;;;5071760;28;20043;-54
2024/03/31 00:53:52;;;;;;;31.87;18.30;;;8.20;99.90;;;;;;5071748;28;20378;-52
2024/03/31 00:56:18;;;;;;;33.53;18.83;;;8.20;99.90;;;;;;5071431;28;20036;-53
2024/03/31 00:58:43;;;;;;;35.57;19.30;;;8.20;99.90;;;;;;5053827;28;20037;-52
2024/03/31 01:01:11;;;;;;;32.87;18.53;;;8.20;99.90;;;;;;5053573;28;20127;-54
2024/03/31 01:03:37;;;;;;;32.90;18.17;;;8.20;99.90;;;;;;5071727;28;20024;-50
2024/03/31 01:06:13;;;;;;;34.20;18.60;;;8.20;99.90;;;;;;5071445;28;20435;-54
2024/03/31 01:08:39;;;;;;;35.43;19.53;;;8.10;99.90;;;;;;5053602;28;20053;-53
2024/03/31 01:11:06;;;;;;;33.23;18.17;;;8.10;99.90;;;;;;5053545;28;20033;-49
2024/03/31 01:13:32;;;;;;;37.67;19.60;;;8.10;99.90;;;;;;5053640;28;20465;-53
2024/03/31 01:16:03;;;;;;;35.07;19.57;;;8.10;99.90;;;;;;5053397;28;20078;-49
2024/03/31 01:18:33;;;;;;;38.73;20.00;;;8.10;99.90;;;;;;5053562;28;20035;-53
2024/03/31 01:21:00;;;;;;;38.63;20.10;;;8.00;99.90;;;;;;5053512;28;20073;-50
2024/03/31 01:23:36;;;;;;;40.13;21.07;;;8.00;99.90;;;;;;5071441;28;20071;-53
2024/03/31 01:26:02;;;;;;;37.80;21.90;;;8.00;99.90;;;;;;5053321;28;20052;-50
2024/03/31 01:28:33;;;;;;;37.83;20.80;;;8.00;99.90;;;;;;5071484;28;20422;-53
2024/03/31 01:30:59;;;;;;;39.20;22.00;;;8.00;99.90;;;;;;5071323;28;20028;-50
2024/03/31 01:33:24;;;;;;;43.97;22.30;;;8.00;99.90;;;;;;5071663;28;20384;-51
2024/03/31 01:35:50;;;;;;;41.37;21.80;;;8.10;99.90;;;;;;5052924;28;20538;-51
2024/03/31 01:38:15;;;;;;;39.20;20.93;;;8.10;99.90;;;;;;5053445;28;20032;-52
2024/03/31 01:40:41;;;;;;;36.00;21.30;;;8.10;99.90;;;;;;5053498;28;20489;-50
2024/03/31 01:43:07;;;;;;;36.33;21.30;;;8.10;99.90;;;;;;5053290;28;20478;-49
2024/03/31 01:45:33;;;;;;;37.70;20.80;;;8.10;99.90;;;;;;5053091;28;20033;-51
2024/03/31 01:47:58;;;;;;;37.10;21.10;;;8.10;99.90;;;;;;5071213;28;20466;-54
2024/03/31 01:50:24;;;;;;;39.17;22.67;;;8.10;99.90;;;;;;5054075;28;20059;-54
2024/03/31 01:52:50;;;;;;;39.80;21.27;;;8.10;99.90;;;;;;5074920;28;20466;-50
2024/03/31 01:55:16;;;;;;;35.50;19.90;;;8.10;99.90;;;;;;5056818;28;20040;-53
2024/03/31 01:57:42;;;;;;;34.17;20.37;;;8.10;99.90;;;;;;5056726;28;20047;-52
2024/03/31 02:00:08;;;;;;;32.97;18.70;;;8.10;99.90;;;;;;5074662;28;20111;-51
2024/03/31 02:02:40;;;;;;;34.03;20.40;;;8.10;99.90;;;;;;5074738;28;20032;-53
2024/03/31 02:05:06;;;;;;;34.63;20.40;;;8.00;99.90;;;;;;5056563;28;20386;-54
2024/03/31 02:07:32;;;;;;;30.97;18.80;;;8.00;99.90;;;;;;5074639;28;20027;-54
2024/03/31 02:09:57;;;;;;;36.17;20.60;;;8.00;99.90;;;;;;5074521;28;20036;-53
2024/03/31 02:12:23;;;;;;;42.43;22.70;;;8.10;99.90;;;;;;5056674;28;20570;-53
2024/03/31 02:14:48;;;;;;;39.60;21.83;;;8.10;99.90;;;;;;5056510;28;20037;-53
2024/03/31 02:17:14;;;;;;;38.47;21.70;;;8.10;99.90;;;;;;5074315;28;20043;-54
2024/03/31 02:19:40;;;;;;;38.07;20.10;;;8.10;99.90;;;;;;5074255;28;20078;-54
2024/03/31 02:22:05;;;;;;;33.50;20.50;;;8.10;99.90;;;;;;5056328;28;20077;-53
2024/03/31 02:24:31;;;;;;;37.40;22.10;;;8.10;99.90;;;;;;5074409;28;20052;-54
2024/03/31 02:26:56;;;;;;;35.53;21.00;;;8.10;99.90;;;;;;5056140;28;20067;-52
2024/03/31 02:29:23;;;;;;;35.37;21.07;;;8.10;99.90;;;;;;5056324;28;20029;-54
2024/03/31 02:31:50;;;;;;;41.20;22.77;;;8.10;99.90;;;;;;5056182;28;20055;-52
2024/03/31 02:34:18;;;;;;;41.77;22.60;;;8.10;99.90;;;;;;5056051;28;20071;-53
2024/03/31 02:36:48;;;;;;;39.63;21.87;;;8.20;99.90;;;;;;5055885;28;20036;-52
2024/03/31 02:39:15;;;;;;;41.37;23.30;;;8.10;99.90;;;;;;5056282;28;20028;-53
2024/03/31 02:41:41;;;;;;;34.60;21.20;;;8.20;99.90;;;;;;5055956;28;20489;-53
2024/03/31 02:44:06;;;;;;;40.27;24.47;;;8.20;99.90;;;;;;5056074;28;20035;-53
2024/03/31 02:46:32;;;;;;;41.53;22.43;;;8.20;99.90;;;;;;5055829;28;20043;-53
2024/03/31 02:48:58;;;;;;;37.40;22.43;;;8.30;99.90;;;;;;5056380;28;20107;-49
2024/03/31 02:51:24;;;;;;;38.27;22.53;;;8.30;99.90;;;;;;5056615;28;20175;-50
2024/03/31 02:53:49;;;;;;;40.60;24.80;;;8.30;99.90;;;;;;5074506;28;20066;-49
2024/03/31 02:56:15;;;;;;;42.93;24.33;;;8.30;99.90;;;;;;5056506;28;20431;-48
2024/03/31 02:58:41;;;;;;;35.93;21.67;;;8.30;99.90;;;;;;5056561;28;20036;-50
2024/03/31 03:01:07;;;;;;;37.63;23.47;;;8.30;99.90;;;;;;5055441;28;20508;-49
2024/03/31 03:03:33;;;;;;;38.53;24.27;;;8.30;99.90;;;;;;5054765;28;20040;-50
2024/03/31 03:05:59;;;;;;;40.00;24.20;;;8.30;99.90;;;;;;5055387;28;20028;-50
2024/03/31 03:08:25;;;;;;;39.77;25.03;;;8.30;99.90;;;;;;5073552;28;20548;-49
2024/03/31 03:11:00;;;;;;;43.57;25.33;;;8.30;99.90;;;;;;5055423;28;20029;-53
2024/03/31 03:13:27;;;;;;;39.87;23.30;;;8.30;99.90;;;;;;5055400;28;20029;-50
2024/03/31 03:15:53;;;;;;;40.63;24.73;;;8.30;99.90;;;;;;5055058;28;20599;-52
2024/03/31 03:18:19;;;;;;;38.57;23.33;;;8.30;99.90;;;;;;5055355;28;20075;-51
2024/03/31 03:20:49;;;;;;;42.33;24.40;;;8.30;99.90;;;;;;5055265;28;20511;-54
2024/03/31 03:23:15;;;;;;;43.13;25.37;;;8.30;99.90;;;;;;5055329;28;20036;-52
2024/03/31 03:25:40;;;;;;;40.40;25.17;;;8.30;99.90;;;;;;5055130;28;20033;-53
2024/03/31 03:28:06;;;;;;;39.37;24.90;;;8.30;99.90;;;;;;5055127;28;20028;-52
2024/03/31 03:30:36;;;;;;;42.17;24.87;;;8.30;99.90;;;;;;5055014;28;20032;-50
2024/03/31 03:33:02;;;;;;;43.87;26.40;;;8.40;99.90;;;;;;5055117;28;20099;-50
2024/03/31 03:35:30;;;;;;;42.10;24.70;;;8.40;99.90;;;;;;5054815;28;20024;-52
2024/03/31 03:37:56;;;;;;;39.13;25.73;;;8.40;99.90;;;;;;5054950;28;20028;-50
2024/03/31 03:40:22;;;;;;;39.80;24.73;;;8.40;99.90;;;;;;5054923;28;20039;-52
2024/03/31 03:42:47;;;;;;;42.60;25.70;;;8.50;99.90;;;;;;5054719;28;20025;-53
2024/03/31 03:45:13;;;;;;;40.30;25.07;;;8.50;99.90;;;;;;5054691;28;20030;-52
2024/03/31 03:47:40;;;;;;;41.13;25.03;;;8.50;99.90;;;;;;5054814;28;20024;-52
2024/03/31 03:50:06;;;;;;;37.40;23.97;;;8.50;99.90;;;;;;5054614;28;20029;-50
2024/03/31 03:52:32;;;;;;;37.97;24.07;;;8.50;99.90;;;;;;5072600;28;20064;-53
2024/03/31 03:54:58;;;;;;;36.63;23.43;;;8.60;99.90;;;;;;5054544;28;20041;-52
2024/03/31 03:57:24;;;;;;;37.97;23.57;;;8.60;99.90;;;;;;5054399;28;20051;-50
2024/03/31 03:59:49;;;;;;;39.67;24.03;;;8.60;99.90;;;;;;5054491;28;20032;-51
2024/03/31 04:02:15;;;;;;;40.97;25.57;;;8.60;99.90;;;;;;5072363;28;20108;-50
2024/03/31 04:04:41;;;;;;;39.43;24.47;;;8.60;99.90;;;;;;5054620;28;20091;-50
2024/03/31 04:07:06;;;;;;;37.47;23.23;;;8.60;99.90;;;;;;5072185;28;20029;-51
2024/03/31 04:09:32;;;;;;;40.13;25.37;;;8.60;99.90;;;;;;5054536;28;20231;-50
2024/03/31 04:11:57;;;;;;;37.03;23.53;;;8.50;99.90;;;;;;5054212;28;20561;-50
2024/03/31 04:14:23;;;;;;;41.87;24.97;;;8.50;99.90;;;;;;5054236;28;20078;-52
2024/03/31 04:16:49;;;;;;;39.10;25.17;;;8.50;99.90;;;;;;5054125;28;20032;-53
2024/03/31 04:19:15;;;;;;;37.17;24.33;;;8.50;99.90;;;;;;5054529;28;20111;-51
2024/03/31 04:21:41;;;;;;;41.03;23.70;;;8.50;99.90;;;;;;5054170;28;20592;-50
2024/03/31 04:24:07;;;;;;;39.43;24.90;;;8.50;99.90;;;;;;5054389;28;20060;-50
2024/03/31 04:26:32;;;;;;;37.87;24.70;;;8.50;99.90;;;;;;5053916;28;20089;-49
2024/03/31 04:28:59;;;;;;;35.33;21.37;;;8.50;99.90;;;;;;5054021;28;20063;-49
2024/03/31 04:31:24;;;;;;;40.27;24.40;;;8.50;99.90;;;;;;5054044;28;20086;-49
2024/03/31 04:33:50;;;;;;;37.77;23.63;;;8.50;99.90;;;;;;5054357;28;20029;-51
2024/03/31 04:36:16;;;;;;;38.53;23.43;;;8.50;99.90;;;;;;5053745;28;20028;-49
2024/03/31 04:38:42;;;;;;;37.50;23.07;;;8.50;99.90;;;;;;5071988;28;20063;-50
2024/03/31 04:41:09;;;;;;;32.17;21.90;;;8.50;99.90;;;;;;5053675;28;20029;-49
2024/03/31 04:43:34;;;;;;;35.93;21.73;;;8.50;99.90;;;;;;5053938;28;20029;-51
2024/03/31 04:46:07;;;;;;;38.67;22.53;;;8.60;99.90;;;;;;5053624;28;20512;-53
2024/03/31 04:48:34;;;;;;;34.97;21.27;;;8.50;99.90;;;;;;5053818;28;20029;-50
2024/03/31 04:51:07;;;;;;;30.87;19.77;;;8.60;99.90;;;;;;5071662;28;20021;-49
2024/03/31 04:53:37;;;;;;;33.93;19.30;;;8.50;99.90;;;;;;5053846;28;20024;-49
2024/03/31 04:56:04;;;;;;;27.50;19.07;;;8.50;99.90;;;;;;5053439;28;20094;-50
2024/03/31 04:58:31;;;;;;;36.53;19.10;;;8.60;99.90;;;;;;5053766;28;20053;-50
2024/03/31 05:00:57;;;;;;;28.23;17.93;;;8.60;99.90;;;;;;5053581;28;20028;-49
2024/03/31 05:03:25;;;;;;;36.73;20.87;;;8.60;99.90;;;;;;5053695;28;20056;-51
2024/03/31 05:05:51;;;;;;;31.30;20.63;;;8.60;99.90;;;;;;5053536;28;20115;-52
2024/03/31 05:08:17;;;;;;;32.47;20.67;;;8.60;99.90;;;;;;5071512;28;20536;-48
2024/03/31 05:10:53;;;;;;;37.77;22.37;;;8.70;99.90;;;;;;5053574;28;20032;-51
2024/03/31 05:13:19;;;;;;;35.77;22.20;;;8.70;99.90;;;;;;5053594;28;20037;-49
2024/03/31 05:15:45;;;;;;;34.50;22.23;;;8.70;99.90;;;;;;5053496;28;20498;-51
2024/03/31 05:18:16;;;;;;;33.83;22.60;;;8.70;99.90;;;;;;5053591;28;20131;-53
2024/03/31 05:20:53;;;;;;;34.20;20.30;;;8.70;99.90;;;;;;5053489;28;20025;-49
2024/03/31 05:23:18;;;;;;;36.20;21.80;;;8.70;99.90;;;;;;5053486;28;20052;-51
2024/03/31 05:25:44;;;;;;;39.10;23.93;;;8.70;99.90;;;;;;5054903;28;20477;-51
2024/03/31 05:28:10;;;;;;;34.93;22.50;;;8.70;99.90;;;;;;5057452;28;20029;-49
2024/03/31 05:30:35;;;;;;;35.97;22.97;;;8.70;99.90;;;;;;5057303;28;20032;-49
2024/03/31 05:33:01;;;;;;;35.97;24.13;;;8.70;99.90;;;;;;5057351;28;20422;-50
2024/03/31 05:35:41;;;;;;;37.80;23.05;;;8.60;99.90;;;;;;5057131;28;20024;-52
2024/03/31 05:38:11;;;;;;;36.27;23.00;;;8.60;99.90;;;;;;5075193;28;20466;-49
2024/03/31 05:40:37;;;;;;;40.97;24.17;;;8.60;99.90;;;;;;5057118;28;20036;-49
2024/03/31 05:43:03;;;;;;;37.77;23.93;;;8.60;99.90;;;;;;5057118;28;20036;-50
2024/03/31 05:45:29;;;;;;;41.37;25.10;;;8.60;99.90;;;;;;5056864;28;20042;-49
2024/03/31 05:47:55;;;;;;;37.13;25.27;;;8.60;99.90;;;;;;5056970;28;20024;-49
2024/03/31 05:50:20;;;;;;;38.67;25.10;;;8.60;99.90;;;;;;5056798;28;20031;-49
2024/03/31 05:52:47;;;;;;;38.97;24.43;;;8.60;99.90;;;;;;5056991;28;20390;-50
2024/03/31 05:55:12;;;;;;;38.53;22.77;;;8.60;99.90;;;;;;5074986;28;20032;-51
2024/03/31 05:57:38;;;;;;;32.80;21.77;;;8.70;99.90;;;;;;5056838;28;20407;-52
2024/03/31 06:00:05;;;;;;;33.67;22.17;;;8.70;99.90;;;;;;5056930;28;20431;-49
2024/03/31 06:02:39;;;;;;;38.30;22.67;;;8.70;99.90;;;;;;5074727;28;20112;-49
2024/03/31 06:05:06;;;;;;;36.00;23.10;;;8.70;99.90;;;;;;5056575;28;20055;-49
2024/03/31 06:07:31;;;;;;;34.27;21.30;;;8.70;99.90;;;;;;5056619;28;20025;-48
2024/03/31 06:09:58;;;;;;;35.00;21.40;;;8.80;99.90;;;;;;5056564;28;20031;-49
2024/03/31 06:12:25;;;;;;;34.90;18.67;;;8.80;99.90;;;;;;5056599;28;20119;-49
2024/03/31 06:14:50;;;;;;;26.27;15.43;;;8.90;99.90;;;;;;5056484;28;20078;-52
2024/03/31 06:17:17;;;;;;;26.43;14.23;;;9.00;99.90;;;;;;5056359;28;20436;-49
2024/03/31 06:19:42;;;;;;;24.57;14.83;;;9.10;99.90;;;;;;5056455;28;20511;-49
2024/03/31 06:22:08;;;;;;;25.53;13.97;;;9.10;99.90;;;;;;5073230;28;20040;-49
2024/03/31 06:24:34;;;;;;;26.30;14.20;;;9.10;99.90;;;;;;5056382;28;20123;-51
2024/03/31 06:26:59;;;;;;;24.53;14.17;;;9.20;99.90;;;;;;5056298;28;20028;-52
2024/03/31 06:29:25;;;;;;;27.83;15.03;;;9.20;99.90;;;;;;5056348;28;20063;-49
2024/03/31 06:31:51;;;;;;;23.53;14.27;;;9.20;99.90;;;;;;5056147;28;20056;-50
2024/03/31 06:34:17;;;;;;;21.67;14.03;;;9.20;99.90;;;;;;5074155;28;20078;-52
2024/03/31 06:36:42;;;;;;;21.23;13.13;;;9.20;99.90;;;;;;5055863;28;20386;-52
2024/03/31 06:39:09;;;;;;;23.73;13.47;;;9.30;99.90;;;;;;5056260;28;20493;-51
2024/03/31 06:41:34;;;;;;;22.30;12.60;;;9.30;99.90;;;;;;5056007;28;20028;-50
2024/03/31 06:44:00;;;;;;;20.67;12.77;;;9.50;99.90;;;;;;5056041;28;20027;-49
2024/03/31 06:46:26;;;;;;;21.83;11.63;;;9.50;99.90;;;;;;5056014;28;20370;-51
2024/03/31 06:48:51;;;;;;;15.97;10.53;;;9.60;99.90;;;;;;5073918;28;20033;-52
2024/03/31 06:51:17;;;;;;;20.50;11.03;;;9.70;99.90;;;;;;5055902;28;20047;-51
2024/03/31 06:53:44;;;;;;;18.80;10.37;;;9.80;99.90;;;;;;5055776;28;20032;-51
2024/03/31 06:56:09;;;;;;;17.83;10.47;;;9.90;99.90;;;;;;5055542;28;20056;-53
2024/03/31 06:58:35;;;;;;;17.87;9.87;;;10.00;99.90;;;;;;5055836;28;20060;-53
2024/03/31 07:01:01;;;;;;;19.73;10.10;;;10.10;99.90;;;;;;5055613;28;20024;-51
2024/03/31 07:03:27;;;;;;;19.10;9.77;;;10.20;99.90;;;;;;5055677;28;20025;-51
2024/03/31 07:05:53;;;;;;;18.33;10.20;;;10.20;99.90;;;;;;5055435;28;20550;-52
2024/03/31 07:08:18;;;;;;;15.43;9.23;;;10.30;99.90;;;;;;5055582;28;20033;-53
2024/03/31 07:10:46;;;;;;;18.23;8.43;;;10.40;99.90;;;;;;5055474;28;20037;-50
2024/03/31 07:13:12;;;;;;;16.53;8.43;;;10.60;99.90;;;;;;5073423;28;20029;-53
2024/03/31 07:15:38;;;;;;;13.67;7.03;;;10.70;99.90;;;;;;5055191;28;20381;-54
2024/03/31 07:18:06;;;;;;;17.60;7.87;;;10.80;99.90;;;;;;5055455;28;20025;-50
2024/03/31 07:20:33;;;;;;;18.20;8.20;;;10.90;99.90;;;;;;5055280;28;20055;-52
2024/03/31 07:23:04;;;;;;;20.27;8.87;;;10.90;99.90;;;;;;5055436;28;20063;-53
2024/03/31 07:25:30;;;;;;;17.67;7.85;;;11.00;99.90;;;;;;5055116;28;20025;-54
2024/03/31 07:27:56;;;;;;;18.70;7.60;;;11.20;99.90;;;;;;5055108;28;20024;-51
2024/03/31 07:30:22;;;;;;;16.73;7.63;;;11.50;99.90;;;;;;5055015;28;20078;-50
2024/03/31 07:32:47;;;;;;;17.17;7.15;;;11.80;99.90;;;;;;5055117;28;20029;-52
2024/03/31 07:35:14;;;;;;;16.15;6.72;;;12.20;99.90;;;;;;5054908;28;20033;-49
2024/03/31 07:37:39;;;;;;;11.25;5.97;;;12.50;99.90;;;;;;5072910;28;20063;-50
2024/03/31 07:40:06;;;;;;;13.45;5.80;;;12.60;99.90;;;;;;5072876;28;20060;-52
2024/03/31 07:42:32;;;;;;;17.38;5.50;;;12.50;99.90;;;;;;5072797;28;20112;-51
2024/03/31 07:44:58;;;;;;;12.68;5.90;;;12.50;99.90;;;;;;5072785;28;20119;-53
2024/03/31 07:47:23;;;;;;;11.88;4.55;;;13.00;99.90;;;;;;5072640;28;20020;-53
2024/03/31 07:49:49;;;;;;;11.40;4.13;;;13.60;99.90;;;;;;5072300;28;20028;-52
2024/03/31 07:52:14;;;;;;;9.85;3.40;;;14.10;99.90;;;;;;5072633;28;20093;-51
2024/03/31 07:54:40;;;;;;;12.25;3.38;;;14.40;99.90;;;;;;5072634;28;20040;-51
2024/03/31 07:57:06;;;;;;;9.18;4.07;;;14.60;99.90;;;;;;5072198;28;20126;-54
2024/03/31 07:59:31;;;;;;;11.75;3.90;;;15.10;99.90;;;;;;5072519;28;20032;-49
2024/03/31 08:01:57;;;;;;;9.55;3.50;;;15.50;99.90;;;;;;5072368;28;20036;-52
2024/03/31 08:04:23;;;;;;;13.52;4.18;;;15.70;99.90;;;;;;5072425;28;20115;-53
2024/03/31 08:06:48;;;;;;;9.10;3.20;;;16.10;99.90;;;;;;5072251;28;20151;-53
2024/03/31 08:09:14;;;;;;;10.85;3.58;;;16.50;99.90;;;;;;5072361;28;20470;-52
2024/03/31 08:11:39;;;;;;;8.63;3.60;;;16.60;99.90;;;;;;5072222;28;20028;-52
2024/03/31 08:14:05;;;;;;;10.85;3.53;;;16.40;99.90;;;;;;5072323;28;20443;-51
2024/03/31 08:16:31;;;;;;;11.07;3.72;;;16.10;99.90;;;;;;5072071;28;20037;-52
2024/03/31 08:18:57;;;;;;;13.65;3.60;;;15.90;99.90;;;;;;5072261;28;20032;-51
2024/03/31 08:21:23;;;;;;;12.35;4.15;;;15.50;99.90;;;;;;5071948;28;20056;-53
2024/03/31 08:23:49;;;;;;;10.13;3.42;;;15.30;99.90;;;;;;5072193;28;20508;-53
2024/03/31 08:26:15;;;;;;;7.13;3.30;;;15.40;99.90;;;;;;5071816;28;20060;-53
2024/03/31 08:28:41;;;;;;;10.20;3.72;;;15.40;99.90;;;;;;5072090;28;20054;-53
2024/03/31 08:31:06;;;;;;;12.75;3.88;;;15.20;99.90;;;;;;5072014;28;20495;-50
2024/03/31 08:33:32;;;;;;;11.77;4.25;;;15.20;99.90;;;;;;5072008;28;20032;-51
2024/03/31 08:35:57;;;;;;;10.70;3.75;;;15.50;99.90;;;;;;5053881;28;20024;-53
2024/03/31 08:38:23;;;;;;;8.95;3.67;;;15.60;99.90;;;;;;5071904;28;20033;-54
2024/03/31 08:40:55;;;;;;;15.00;4.65;;;15.90;99.90;;;;;;5071752;28;20025;-54
2024/03/31 08:43:22;;;;;;;12.25;4.20;;;15.80;99.90;;;;;;5071793;28;20044;-53
2024/03/31 08:45:49;;;;;;;9.75;4.43;;;15.80;99.90;;;;;;5071679;28;20063;-53
2024/03/31 08:48:20;;;;;;;11.63;4.07;;;16.00;99.90;;;;;;5071762;28;20025;-53
2024/03/31 08:50:49;;;;;;;10.60;3.88;;;16.20;99.90;;;;;;5071745;28;20539;-52
2024/03/31 08:53:15;;;;;;;;;;;16.40;99.90;;;;;;5072260;28;20493;-54
2024/03/31 08:55:41;;;;;;;11.05;3.58;;;16.80;99.90;;;;;;5071639;28;20607;-52
2024/03/31 08:58:08;;;;;;;11.70;2.47;;;17.30;99.90;;;;;;5071724;28;20155;-54
2024/03/31 09:00:36;;;;;;;11.60;3.50;;;17.20;99.90;;;;;;5070737;28;20040;-54
2024/03/31 09:03:04;;;;;;;12.63;3.28;;;17.30;99.90;;;;;;5071629;28;20062;-52
2024/03/31 09:05:31;;;;;;;10.97;2.70;;;17.20;99.90;;;;;;5071429;28;20028;-53
2024/03/31 09:07:57;;;;;;;13.02;2.45;;;17.40;99.90;;;;;;5053496;28;20032;-53
2024/03/31 09:10:23;;;;;;;7.85;1.83;;;17.50;99.90;;;;;;5071502;28;20413;-53
2024/03/31 09:12:49;;;;;;;9.32;1.83;;;17.70;99.90;;;;;;5071532;28;20032;-53
2024/03/31 09:15:15;;;;;;;9.40;1.98;;;18.00;99.90;;;;;;5071450;28;20039;-53
2024/03/31 09:17:41;;;;;;;8.20;2.00;;;18.00;99.90;;;;;;5053649;28;20551;-52
2024/03/31 09:20:07;;;;;;;6.18;1.55;;;18.10;99.90;;;;;;5071432;28;20068;-53
2024/03/31 09:22:37;;;;;;;7.15;1.45;;;18.20;99.90;;;;;;5071389;28;20043;-53
2024/03/31 09:25:03;;;;;;;10.65;1.58;;;18.50;99.90;;;;;;5071413;28;20029;-52
2024/03/31 09:27:29;;;;;;;7.75;2.13;;;18.50;99.90;;;;;;5071452;28;20450;-54
2024/03/31 09:29:58;;;;;;;10.57;1.70;;;18.50;99.90;;;;;;5071377;28;20060;-53
2024/03/31 09:32:25;;;;;;;4.15;1.33;;;18.60;99.90;;;;;;5071514;28;20037;-52
2024/03/31 09:34:51;;;;;;;6.90;1.63;;;19.00;99.90;;;;;;5071922;28;20082;-53
2024/03/31 09:37:16;;;;;;;9.48;1.42;;;19.20;99.90;;;;;;5071082;28;20040;-52
2024/03/31 09:39:43;;;;;;;11.18;2.22;;;19.60;99.90;;;;;;5071242;28;20119;-54
2024/03/31 09:42:10;;;;;;;9.25;1.73;;;20.00;99.90;;;;;;5071334;28;20033;-54
2024/03/31 09:44:36;;;;;;;10.45;1.90;;;20.10;99.90;;;;;;5071329;28;20078;-53
2024/03/31 09:47:22;;;;;;;10.68;1.75;;;20.10;99.90;;;;;;5071497;28;20032;-53
2024/03/31 09:50:23;;;;;;;6.10;1.20;;;20.30;99.20;;;;;;5071198;28;20489;-53
2024/03/31 09:52:59;;;;;;;10.48;1.40;;;20.80;98.70;;;;;;5057927;28;20512;-52
2024/03/31 09:55:26;;;;;;;9.45;1.40;;;21.60;97.70;;;;;;5071113;28;20031;-53
2024/03/31 09:57:56;;;;;;;6.70;1.55;;;22.20;97.30;;;;;;5071061;28;20032;-50
2024/03/31 10:00:22;;;;;;;7.00;2.00;;;22.90;95.70;;;;;;5071103;28;20393;-53
2024/03/31 10:02:57;;;;;;;8.43;1.95;;;23.20;94.70;;;;;;5071082;28;20048;-51
2024/03/31 10:05:36;;;;;;;9.85;1.38;;;23.70;93.60;;;;;;5070998;28;20028;-53
2024/03/31 10:08:02;;;;;;;8.93;1.75;;;24.10;91.10;;;;;;5071194;28;20029;-52
2024/03/31 10:10:29;;;;;;;10.02;1.67;;;23.50;91.20;;;;;;5070875;28;20029;-51
2024/03/31 10:12:57;;;;;;;6.82;1.55;;;23.30;90.70;;;;;;5074240;28;20029;-52
2024/03/31 10:15:24;;;;;;;7.88;1.60;;;23.00;92.90;;;;;;5056572;28;20120;-51
2024/03/31 10:17:51;;;;;;;7.22;1.35;;;22.80;91.60;;;;;;5074506;28;20029;-53
2024/03/31 10:20:18;;;;;;;6.05;1.20;;;22.90;92.10;;;;;;5074445;28;20021;-52
2024/03/31 10:22:44;;;;;;;8.20;1.40;;;22.90;91.40;;;;;;5074478;28;20032;-53
2024/03/31 10:25:10;;;;;;;6.70;1.05;;;22.70;91.20;;;;;;5074259;28;20029;-54
2024/03/31 10:27:41;;;;;;;12.23;1.75;;;22.10;90.90;;;;;;5074323;28;20108;-52
2024/03/31 10:30:07;;;;;;;8.63;1.50;;;21.90;91.70;;;;;;5074301;28;20090;-54
2024/03/31 10:32:34;;;;;;;7.63;1.48;;;21.70;92.10;;;;;;5074242;28;20051;-54
2024/03/31 10:35:00;;;;;;;8.48;1.42;;;21.60;92.40;;;;;;5074241;28;20115;-54
2024/03/31 10:37:27;;;;;;;6.45;1.80;;;22.40;91.30;;;;;;5074337;28;20370;-54
2024/03/31 10:39:53;;;;;;;10.25;1.50;;;23.70;90.40;;;;;;5074234;28;20374;-52
2024/03/31 10:42:21;;;;;;;6.88;1.30;;;25.00;85.60;;;;;;5073976;28;20050;-52
2024/03/31 10:44:47;;;;;;;5.82;1.23;;;26.20;81.80;;;;;;5074077;28;20035;-52
2024/03/31 10:47:12;;;;;;;7.78;1.75;;;26.50;80.30;;;;;;5073758;28;20039;-53
2024/03/31 10:49:39;;;;;;;23.10;10.73;;;26.30;78.40;;;;;;5055871;28;20033;-52
2024/03/31 10:52:05;;;;;;;7.78;2.60;;;26.10;77.30;;;;;;5073855;28;20036;-53
2024/03/31 10:54:35;;;;;;;13.00;2.25;;;26.40;79.60;;;;;;5073912;28;20465;-53
2024/03/31 10:57:08;;;;;;;6.10;1.20;;;26.50;79.30;;;;;;5073492;28;20072;-52
2024/03/31 10:59:37;;;;;;;6.18;1.30;;;26.90;80.10;;;;;;5073678;28;20025;-53
2024/03/31 11:02:21;;;;;;;12.55;4.68;;;27.10;72.70;;;;;;5073581;28;20032;-53
2024/03/31 11:05:04;;;;;;;9.05;3.08;;;26.30;72.10;;;;;;5073587;28;20033;-50
2024/03/31 11:07:34;;;;;;;13.73;3.33;;;26.30;74.10;;;;;;5073700;28;20059;-53
2024/03/31 11:10:01;;;;;;;7.47;1.63;;;25.70;73.30;;;;;;5055499;28;20046;-53
2024/03/31 11:12:27;;;;;;;7.93;1.80;;;25.50;74.10;;;;;;5073632;28;20112;-51
2024/03/31 11:14:54;;;;;;;6.65;1.40;;;25.70;74.10;;;;;;5073409;28;20056;-50
2024/03/31 11:17:20;;;;;;;5.50;1.48;;;25.30;77.00;;;;;;5073152;28;20040;-53
2024/03/31 11:19:46;;;;;;;10.13;3.00;;;24.90;76.60;;;;;;5073320;28;20029;-50
2024/03/31 11:22:12;;;;;;;5.40;0.90;;;24.80;76.80;;;;;;5073102;28;20064;-52
2024/03/31 11:24:38;;;;;;;6.57;1.50;;;25.00;73.00;;;;;;5072563;28;20025;-53
2024/03/31 11:27:05;;;;;;;7.50;1.13;;;24.50;73.60;;;;;;5073034;28;20098;-53
2024/03/31 11:29:31;;;;;;;11.70;2.22;;;24.10;74.50;;;;;;5073117;28;20041;-53
2024/03/31 11:31:58;;;;;;;7.32;1.42;;;23.60;76.10;;;;;;5073036;28;20043;-52
2024/03/31 11:34:24;;;;;;;7.25;1.38;;;23.40;77.40;;;;;;5073249;28;20024;-51
2024/03/31 11:36:53;;;;;;;5.32;1.02;;;22.90;79.10;;;;;;5072973;28;20055;-51
2024/03/31 11:39:18;;;;;;;7.00;1.30;;;22.60;78.00;;;;;;5073169;28;20032;-50
2024/03/31 11:41:45;;;;;;;8.55;2.08;;;22.50;77.90;;;;;;5072971;28;20055;-52
2024/03/31 11:44:11;;;;;;;6.80;1.20;;;22.30;79.20;;;;;;5073075;28;20024;-48
2024/03/31 11:46:37;;;;;;;5.72;1.10;;;22.10;80.30;;;;;;5072747;28;20055;-50
2024/03/31 11:49:03;;;;;;;8.95;1.38;;;22.00;79.10;;;;;;5072804;28;20028;-47
2024/03/31 11:51:30;;;;;;;8.85;1.38;;;21.90;77.90;;;;;;5072647;28;20047;-49
2024/03/31 11:53:56;;;;;;;6.53;1.20;;;21.60;78.50;;;;;;5054784;28;20115;-49
2024/03/31 11:56:22;;;;;;;7.45;1.10;;;21.50;78.60;;;;;;5072304;28;20115;-51
2024/03/31 11:58:48;;;;;;;11.77;1.30;;;21.40;80.30;;;;;;5072469;28;20064;-52
2024/03/31 12:01:22;;;;;;;7.60;1.35;;;21.20;81.80;;;;;;5072392;28;20111;-52
2024/03/31 12:03:54;;;;;;;7.25;1.25;;;21.10;82.40;;;;;;5072493;28;20090;-49
2024/03/31 12:06:21;;;;;;;7.60;1.10;;;20.90;81.00;;;;;;5072292;28;20078;-53
2024/03/31 12:08:47;;;;;;;10.63;1.20;;;20.70;81.00;;;;;;5072404;28;20474;-49
2024/03/31 12:11:13;;;;;;;10.00;2.10;;;20.50;82.60;;;;;;5054414;28;20068;-52
2024/03/31 12:13:38;;;;;;;8.48;1.20;;;20.30;82.10;;;;;;5072346;28;20032;-49
2024/03/31 12:16:04;;;;;;;10.70;1.40;;;20.10;83.20;;;;;;5072146;28;20464;-49
2024/03/31 12:18:30;;;;;;;6.38;1.33;;;20.00;82.90;;;;;;5072393;28;20028;-49
2024/03/31 12:20:55;;;;;;;7.32;1.05;;;20.00;81.90;;;;;;5072196;28;20392;-48
2024/03/31 12:23:21;;;;;;;4.90;0.77;;;19.90;81.20;;;;;;5072229;28;20111;-51
2024/03/31 12:25:47;;;;;;;7.75;1.00;;;19.80;81.00;;;;;;5072006;28;20060;-53
2024/03/31 12:28:13;;;;;;;11.88;1.20;;;19.80;81.20;;;;;;5072153;28;20028;-49
2024/03/31 12:30:45;;;;;;;6.15;1.05;;;20.10;81.50;;;;;;5071954;28;20115;-53
2024/03/31 12:33:11;;;;;;;5.88;1.40;;;20.50;81.80;;;;;;5072097;28;20036;-53
2024/03/31 12:35:37;;;;;;;10.07;1.55;;;21.00;81.10;;;;;;5071623;28;20068;-51